Time;durP1;ratioP1;P1;durP2;ratioP2;P2;SDS_P1;SDS_P2;PMS_P1;PMS_P2;Temp;Humidity;BMP_temperature;BMP_pressure;BME280_temperature;BME280_humidity;BME280_pressure;Samples;Min_cycle;Max_cycle;Signal;HPM_P1;HPM_P2
2023/02/25 00:00:30;;;;;;;98.20;89.05;;;;;;;2.79;97.96;98066.95;1829831;77;27534;-45
2023/02/25 00:02:59;;;;;;;98.50;89.35;;;;;;;2.77;97.86;98059.25;1829776;77;25712;-46
2023/02/25 00:05:26;;;;;;;97.47;88.35;;;;;;;2.74;97.97;98053.23;1829825;77;25414;-46
2023/02/25 00:07:53;;;;;;;95.17;86.60;;;;;;;2.76;98.02;98052.92;1829739;77;25540;-45
2023/02/25 00:10:20;;;;;;;93.97;85.67;;;;;;;2.73;97.84;98044.19;1829814;77;25537;-45
2023/02/25 00:12:47;;;;;;;94.50;86.50;;;;;;;2.72;97.64;98043.94;1829795;77;27485;-46
2023/02/25 00:15:13;;;;;;;94.50;85.92;;;;;;;2.73;97.64;98044.19;1829702;77;25433;-47
2023/02/25 00:17:39;;;;;;;94.90;86.70;;;;;;;2.72;97.66;98042.05;1829790;77;25528;-44
2023/02/25 00:20:12;;;;;;;93.90;85.60;;;;;;;2.71;97.74;98036.49;1829788;77;25624;-44
2023/02/25 00:22:39;;;;;;;96.78;87.90;;;;;;;2.72;97.79;98038.60;1829907;78;25605;-47
2023/02/25 00:25:08;;;;;;;95.67;87.15;;;;;;;2.72;97.83;98038.05;1829814;77;28128;-45
2023/02/25 00:27:35;;;;;;;98.55;89.03;;;;;;;2.71;97.76;98030.38;1828946;77;25538;-46
2023/02/25 00:30:01;;;;;;;36.28;15.80;;;;;;;2.72;97.63;98026.59;1823721;78;25552;-44
2023/02/25 00:32:27;;;;;;;33.40;16.32;;;;;;;2.72;97.73;98017.25;1823714;77;26098;-45
2023/02/25 00:34:53;;;;;;;31.02;14.80;;;;;;;2.71;97.71;98019.14;1823734;78;25549;-44
2023/02/25 00:37:20;;;;;;;34.55;15.25;;;;;;;2.70;97.79;98014.11;1823708;78;28192;-47
2023/02/25 00:39:46;;;;;;;32.90;15.53;;;;;;;2.69;97.80;98012.52;1823336;78;25365;-44
2023/02/25 00:42:16;;;;;;;33.55;16.50;;;;;;;2.68;97.87;98009.08;1822150;78;25638;-43
2023/02/25 00:44:48;;;;;;;34.43;16.27;;;;;;;2.66;97.88;98007.28;1822742;78;25962;-44
2023/02/25 00:47:18;;;;;;;35.10;16.10;;;;;;;2.64;97.94;98012.67;1823421;78;25699;-44
2023/02/25 00:49:47;;;;;;;37.25;16.97;;;;;;;2.64;98.06;98009.48;1823310;78;27479;-44
2023/02/25 00:52:15;;;;;;;38.88;17.15;;;;;;;2.62;98.17;98003.64;1823312;78;25729;-45
2023/02/25 00:54:42;;;;;;;37.10;19.82;;;;;;;2.61;98.27;98000.20;1823498;78;25609;-45
2023/02/25 00:57:09;;;;;;;40.50;18.65;;;;;;;2.61;98.38;97995.42;1823602;78;25599;-45
2023/02/25 00:59:35;;;;;;;35.80;16.73;;;;;;;2.61;98.44;97989.52;1823636;78;25608;-47
2023/02/25 01:02:02;;;;;;;38.08;18.10;;;;;;;2.60;98.41;97986.60;1823631;78;27438;-45
2023/02/25 01:04:28;;;;;;;35.38;16.55;;;;;;;2.62;98.44;97991.63;1823572;78;25582;-44
2023/02/25 01:06:54;;;;;;;33.85;16.35;;;;;;;2.64;98.57;97983.31;1823635;78;25469;-44
2023/02/25 01:09:21;;;;;;;31.90;15.20;;;;;;;2.64;98.66;97983.31;1823570;78;25678;-47
2023/02/25 01:11:49;;;;;;;32.58;14.90;;;;;;;2.64;98.50;97984.13;1823737;78;25566;-46
2023/02/25 01:14:22;;;;;;;34.75;16.70;;;;;;;2.63;98.56;97974.53;1823667;78;27524;-45
2023/02/25 01:16:50;;;;;;;38.05;16.90;;;;;;;2.63;98.58;97969.19;1823612;78;25534;-43
2023/02/25 01:19:21;;;;;;;17.47;9.90;;;;;;;2.60;98.52;97968.48;1823908;78;25451;-44
2023/02/25 01:21:52;;;;;;;27.55;12.13;;;;;;;2.61;98.37;97970.06;1823105;78;25441;-46
2023/02/25 01:24:26;;;;;;;26.75;12.78;;;;;;;2.61;98.45;97970.06;1823727;78;25379;-46
2023/02/25 01:26:56;;;;;;;27.02;13.22;;;;;;;2.59;98.53;97959.70;1823634;78;27557;-47
2023/02/25 01:29:28;;;;;;;25.68;12.30;;;;;;;2.60;98.59;97953.80;1828090;77;25738;-45
2023/02/25 01:31:58;;;;;;;29.05;15.68;;;;;;;2.60;98.55;97949.80;1828892;77;25635;-47
2023/02/25 01:34:27;;;;;;;25.50;12.82;;;;;;;2.60;98.58;97944.45;1829768;77;25633;-45
2023/02/25 01:36:55;;;;;;;24.00;12.90;;;;;;;2.58;98.62;97939.42;1829964;78;25375;-45
2023/02/25 01:39:23;;;;;;;24.87;11.35;;;;;;;2.60;98.58;97941.23;1829823;77;27502;-43
2023/02/25 01:41:51;;;;;;;24.30;11.63;;;;;;;2.60;98.56;97931.11;1829718;78;25892;-44
2023/02/25 01:44:29;;;;;;;22.62;10.78;;;;;;;2.59;98.77;97925.55;1829802;78;25564;-45
2023/02/25 01:46:55;;;;;;;25.40;11.65;;;;;;;2.57;98.87;97923.20;1829748;77;25554;-45
2023/02/25 01:49:34;;;;;;;20.90;10.75;;;;;;;2.55;99.04;97921.37;1829791;78;25524;-47
2023/02/25 01:52:14;;;;;;;19.80;9.95;;;;;;;2.55;99.37;97921.37;1829750;78;27520;-45
2023/02/25 01:54:44;;;;;;;22.52;11.35;;;;;;;2.54;99.30;97921.15;1829775;77;25438;-45
2023/02/25 01:57:14;;;;;;;22.80;9.98;;;;;;;2.53;99.46;97919.56;1829888;78;25446;-46
2023/02/25 01:59:43;;;;;;;23.47;10.78;;;;;;;2.52;99.47;97912.67;1829751;78;25483;-45
2023/02/25 02:02:13;;;;;;;19.65;10.28;;;;;;;2.50;99.91;97910.08;1830034;78;25393;-46
2023/02/25 02:04:42;;;;;;;24.40;10.68;;;;;;;2.50;99.67;97902.06;1829757;78;27481;-46
2023/02/25 02:07:09;;;;;;;21.75;9.68;;;;;;;2.48;99.68;97902.38;1829760;78;32243;-45
2023/02/25 02:09:39;;;;;;;26.50;10.70;;;;;;;2.47;99.75;97899.48;1829772;77;25435;-44
2023/02/25 02:12:06;;;;;;;26.87;10.45;;;;;;;2.46;99.73;97897.91;1829809;77;26165;-44
2023/02/25 02:14:38;;;;;;;21.97;10.50;;;;;;;2.46;99.83;97889.13;1829798;78;25376;-45
2023/02/25 02:17:40;;;;;;;21.57;10.50;;;;;;;2.47;99.86;97892.02;1829753;77;27552;-45
2023/02/25 02:20:23;;;;;;;21.17;10.48;;;;;;;2.46;99.77;97877.90;1829643;78;25556;-45
2023/02/25 02:23:30;;;;;;;23.12;10.65;;;;;;;2.45;99.84;97876.31;1829720;77;25546;-49
2023/02/25 02:26:20;;;;;;;23.50;10.28;;;;;;;2.45;99.77;97872.88;1829698;78;27718;-46
2023/02/25 02:29:32;;;;;;;24.95;11.50;;;;;;;2.45;99.90;97873.65;1827587;77;25593;-49
2023/02/25 02:32:31;;;;;;;23.90;12.47;;;;;;;2.43;100.00;97865.98;1823706;78;27531;-47
2023/02/25 02:35:23;;;;;;;26.55;12.58;;;;;;;2.45;100.00;97858.20;1823833;78;25557;-44
2023/02/25 02:37:58;;;;;;;26.23;11.85;;;;;;;2.43;100.00;97848.64;1823919;78;25549;-46
2023/02/25 02:40:57;;;;;;;21.05;11.95;;;;;;;2.43;100.00;97847.30;1803153;78;25539;-46
2023/02/25 02:43:41;;;;;;;26.55;11.78;;;;;;;2.45;100.00;97851.53;1823511;78;25605;-45
2023/02/25 02:46:24;;;;;;;23.75;18.02;;;;;;;2.44;100.00;97854.75;1823776;78;27556;-43
2023/02/25 02:48:56;;;;;;;30.48;23.15;;;;;;;2.46;100.00;97853.11;1822913;78;27468;-45
2023/02/25 02:51:36;;;;;;;38.48;34.50;;;;;;;2.45;100.00;97840.30;1823784;78;25624;-44
2023/02/25 02:54:08;;;;;;;28.17;20.17;;;;;;;2.42;100.00;97836.39;1823854;78;25558;-44
2023/02/25 02:56:38;;;;;;;35.10;31.48;;;;;;;2.43;100.00;97829.96;1823904;78;25588;-44
2023/02/25 02:59:12;;;;;;;61.95;56.25;;;;;;;2.45;100.00;97831.52;1823866;78;27618;-44
2023/02/25 03:01:46;;;;;;;52.20;47.50;;;;;;;2.45;100.00;97828.84;1823757;78;25529;-46
2023/02/25 03:04:18;;;;;;;65.85;60.33;;;;;;;2.43;100.00;97821.95;1823850;78;25596;-46
2023/02/25 03:06:49;;;;;;;62.45;56.98;;;;;;;2.45;100.00;97817.61;1823705;78;25602;-45
2023/02/25 03:09:21;;;;;;;64.95;59.58;;;;;;;2.44;100.00;97809.39;1823844;78;25459;-44
2023/02/25 03:11:48;;;;;;;60.10;54.83;;;;;;;2.44;100.00;97810.73;1823785;78;28169;-46
2023/02/25 03:14:15;;;;;;;52.17;47.60;;;;;;;2.43;100.00;97811.28;1823697;78;25434;-44
2023/02/25 03:16:49;;;;;;;56.13;51.02;;;;;;;2.43;100.00;97813.95;1823713;78;25424;-43
2023/02/25 03:19:21;;;;;;;26.00;21.77;;;;;;;2.43;100.00;97806.48;1823861;78;25610;-45
2023/02/25 03:21:53;;;;;;;34.20;16.10;;;;;;;2.42;100.00;97808.93;1823785;78;25521;-46
2023/02/25 03:24:27;;;;;;;40.30;36.10;;;;;;;2.43;100.00;97814.48;1823540;78;27464;-46
2023/02/25 03:26:54;;;;;;;42.35;38.08;;;;;;;2.40;100.00;97798.57;1823645;78;25594;-46
2023/02/25 03:29:23;;;;;;;49.13;44.73;;;;;;;2.41;100.00;97793.45;1826330;77;25818;-45
2023/02/25 03:31:56;;;;;;;;;;;;;;;2.41;100.00;97790.78;1832545;78;25629;-45
2023/02/25 03:34:36;;;;;;;41.23;37.20;;;;;;;2.42;100.00;97789.69;1829832;78;25538;-44
2023/02/25 03:37:14;;;;;;;25.60;18.15;;;;;;;2.42;100.00;97787.02;1813814;78;27484;-44
2023/02/25 03:39:46;;;;;;;25.77;13.70;;;;;;;2.40;100.00;97782.56;1829808;78;27388;-44
2023/02/25 03:42:17;;;;;;;24.00;10.10;;;;;;;2.43;100.00;97791.80;1829838;77;25570;-45
2023/02/25 03:44:49;;;;;;;24.25;10.45;;;;;;;2.42;100.00;97793.70;1829846;77;25411;-45
2023/02/25 03:47:18;;;;;;;22.50;10.82;;;;;;;2.41;100.00;97788.11;1829956;77;25398;-44
2023/02/25 03:49:53;;;;;;;24.67;11.97;;;;;;;2.41;100.00;97780.11;1829799;78;27538;-45
2023/02/25 03:52:24;;;;;;;24.82;12.23;;;;;;;2.42;100.00;97780.91;1829746;78;25636;-45
2023/02/25 03:54:54;;;;;;;28.67;21.40;;;;;;;2.42;100.00;97791.03;1829876;77;25374;-45
2023/02/25 03:57:24;;;;;;;;;;;;;;;2.43;100.00;97797.14;1832515;77;26240;-45
2023/02/25 03:59:55;;;;;;;41.50;37.73;;;;;;;2.42;100.00;97793.70;1829880;78;25576;-44
2023/02/25 04:02:29;;;;;;;59.80;54.88;;;;;;;2.42;100.00;97801.70;1829915;77;27538;-44
2023/02/25 04:04:56;;;;;;;65.67;60.03;;;;;;;2.41;100.00;97798.02;1829869;78;25436;-46
2023/02/25 04:07:23;;;;;;;65.15;59.77;;;;;;;2.40;100.00;97791.09;1829891;78;25518;-44
2023/02/25 04:09:50;;;;;;;79.03;72.40;;;;;;;2.40;100.00;97794.56;1829904;77;27798;-44
2023/02/25 04:12:16;;;;;;;76.77;70.20;;;;;;;2.41;100.00;97791.34;1829930;77;25518;-45
2023/02/25 04:14:42;;;;;;;80.90;74.50;;;;;;;2.41;100.00;97790.01;1830027;78;27512;-44
2023/02/25 04:17:11;;;;;;;68.10;62.27;;;;;;;2.41;100.00;97786.00;1829985;77;32793;-45
2023/02/25 04:19:37;;;;;;;48.40;44.03;;;;;;;2.39;100.00;97788.98;1829942;77;25592;-45
2023/02/25 04:22:06;;;;;;;55.92;51.45;;;;;;;2.34;100.00;97798.48;1829732;78;25704;-45
2023/02/25 04:24:31;;;;;;;66.25;61.02;;;;;;;2.29;100.00;97799.98;1829755;77;25572;-45
2023/02/25 04:27:00;;;;;;;73.25;67.03;;;;;;;2.28;100.00;97798.95;1829771;78;29767;-45
2023/02/25 04:29:26;;;;;;;61.83;56.73;;;;;;;2.26;100.00;97802.49;1827489;77;25538;-46
2023/02/25 04:31:52;;;;;;;61.65;56.83;;;;;;;2.22;100.00;97811.13;1823745;78;25443;-45
2023/02/25 04:34:19;;;;;;;55.03;50.90;;;;;;;2.18;100.00;97815.52;1823653;78;25637;-44
2023/02/25 04:36:46;;;;;;;58.83;54.10;;;;;;;2.15;100.00;97812.14;1823833;77;25544;-44
2023/02/25 04:39:15;;;;;;;56.60;52.33;;;;;;;2.10;100.00;97809.63;1823701;78;28181;-45
2023/02/25 04:41:42;;;;;;;23.47;21.17;;;;;;;2.06;100.00;97814.03;1823737;78;25627;-45
2023/02/25 04:44:09;;;;;;;19.55;16.93;;;;;;;2.03;100.00;97814.10;1823710;78;25372;-45
2023/02/25 04:46:40;;;;;;;45.90;42.27;;;;;;;1.99;100.00;97809.70;1823672;78;25514;-46
2023/02/25 04:49:08;;;;;;;47.25;43.25;;;;;;;1.93;100.00;97806.97;1823726;78;25596;-46
2023/02/25 04:51:36;;;;;;;51.37;47.48;;;;;;;1.89;100.00;97799.34;1823691;78;27555;-45
2023/02/25 04:54:04;;;;;;;17.02;9.08;;;;;;;1.88;100.00;97801.78;1823583;78;25438;-45
2023/02/25 04:56:30;;;;;;;14.38;9.55;;;;;;;1.83;100.00;97804.82;1823663;78;25601;-45
2023/02/25 04:58:57;;;;;;;18.95;9.20;;;;;;;1.83;100.00;97804.05;1823654;78;26130;-45
2023/02/25 05:01:23;;;;;;;15.23;8.35;;;;;;;1.81;100.00;97792.36;1823681;78;25541;-46
2023/02/25 05:03:55;;;;;;;17.12;8.50;;;;;;;1.81;100.00;97790.25;1823671;78;27650;-46
2023/02/25 05:06:19;;;;;;;17.98;8.15;;;;;;;1.80;100.00;97788.67;1803327;78;25547;-46
2023/02/25 05:08:45;;;;;;;17.50;9.78;;;;;;;1.80;100.00;97784.11;1823610;78;25381;-45
2023/02/25 05:11:12;;;;;;;17.45;9.13;;;;;;;1.80;100.00;97780.11;1823614;78;25612;-44
2023/02/25 05:13:38;;;;;;;21.40;12.73;;;;;;;1.77;100.00;97790.63;1823766;78;25538;-44
2023/02/25 05:16:11;;;;;;;52.80;48.42;;;;;;;1.73;100.00;97797.13;1823632;78;27482;-43
2023/02/25 05:18:40;;;;;;;61.00;56.02;;;;;;;1.71;100.00;97789.22;1823638;78;25695;-45
2023/02/25 05:21:17;;;;;;;17.87;16.35;;;;;;;1.68;100.00;97792.72;1823835;78;25391;-44
2023/02/25 05:23:46;;;;;;;15.93;8.78;;;;;;;1.65;100.00;97792.56;1823682;78;25602;-45
2023/02/25 05:26:14;;;;;;;10.82;5.80;;;;;;;1.63;100.00;97795.53;1823828;78;25448;-45
2023/02/25 05:28:42;;;;;;;36.53;32.85;;;;;;;1.62;100.00;97801.20;1823639;78;27464;-45
2023/02/25 05:31:11;;;;;;;68.62;63.17;;;;;;;1.60;100.00;97804.17;1829212;77;25413;-44
2023/02/25 05:33:40;;;;;;;27.75;24.85;;;;;;;1.61;100.00;97804.95;1829906;77;25537;-45
2023/02/25 05:36:11;;;;;;;63.47;58.43;;;;;;;1.60;100.00;97810.83;1830000;77;25647;-45
2023/02/25 05:38:38;;;;;;;84.30;77.62;;;;;;;1.59;100.00;97811.14;1829809;77;25608;-44
2023/02/25 05:41:06;;;;;;;86.87;80.07;;;;;;;1.59;100.00;97813.80;1829742;77;29665;-44
2023/02/25 05:43:35;;;;;;;84.83;78.22;;;;;;;1.59;100.00;97811.14;1829691;78;25548;-44
2023/02/25 05:46:03;;;;;;;62.60;57.90;;;;;;;1.58;100.00;97812.22;1830036;77;25504;-45
2023/02/25 05:48:31;;;;;;;86.28;79.53;;;;;;;1.57;100.00;97804.78;1829701;77;25529;-44
2023/02/25 05:51:06;;;;;;;87.10;80.40;;;;;;;1.57;100.00;97809.34;1829820;77;25605;-44
2023/02/25 05:53:36;;;;;;;88.37;81.12;;;;;;;1.57;100.00;97808.00;1829758;77;27557;-45
2023/02/25 05:56:06;;;;;;;89.47;82.60;;;;;;;1.57;100.00;97809.34;1829741;78;25384;-45
2023/02/25 05:58:33;;;;;;;87.67;80.72;;;;;;;1.55;100.00;97809.64;1829739;77;25437;-45
2023/02/25 06:01:10;;;;;;;85.62;78.83;;;;;;;1.54;100.00;97807.28;1829716;77;25534;-45
2023/02/25 06:03:46;;;;;;;87.97;81.05;;;;;;;1.54;100.00;97810.73;1829839;77;25645;-46
2023/02/25 06:06:16;;;;;;;88.37;81.45;;;;;;;1.55;100.00;97816.30;1829924;77;27504;-45
2023/02/25 06:08:43;;;;;;;90.57;83.30;;;;;;;1.55;100.00;97813.64;1829889;77;25570;-44
2023/02/25 06:11:15;;;;;;;87.82;80.70;;;;;;;1.56;100.00;97820.52;1829915;77;25646;-43
2023/02/25 06:13:42;;;;;;;89.90;82.90;;;;;;;1.56;100.00;97815.75;1829544;77;26157;-45
2023/02/25 06:16:08;;;;;;;88.70;81.72;;;;;;;1.59;100.00;97817.25;1829909;78;25593;-44
2023/02/25 06:18:39;;;;;;;89.20;82.00;;;;;;;1.61;100.00;97819.60;1829884;78;27455;-46
2023/02/25 06:21:09;;;;;;;60.85;56.08;;;;;;;1.61;100.00;97819.05;1829245;77;26059;-43
2023/02/25 06:23:38;;;;;;;87.50;80.60;;;;;;;1.61;100.00;97820.38;1829940;77;25407;-45
2023/02/25 06:26:07;;;;;;;87.78;80.90;;;;;;;1.62;100.00;97819.30;1830005;78;27566;-45
2023/02/25 06:28:35;;;;;;;89.72;82.53;;;;;;;1.62;100.00;97815.86;1830044;78;25622;-45
2023/02/25 06:31:08;;;;;;;87.25;80.53;;;;;;;1.60;100.00;97813.50;1829814;78;27235;-46
2023/02/25 06:33:36;;;;;;;90.05;82.75;;;;;;;1.60;100.00;97818.83;1829873;77;25561;-44
2023/02/25 06:36:05;;;;;;;87.90;80.83;;;;;;;1.62;100.00;97820.63;1829820;78;25608;-45
2023/02/25 06:38:34;;;;;;;88.30;81.28;;;;;;;1.64;100.00;97822.98;1830046;78;32396;-44
2023/02/25 06:41:13;;;;;;;88.67;81.60;;;;;;;1.64;100.00;97818.98;1829916;78;25443;-45
2023/02/25 06:43:40;;;;;;;66.05;60.73;;;;;;;1.64;100.00;97813.66;1830028;78;27505;-45
2023/02/25 06:46:11;;;;;;;87.78;80.72;;;;;;;1.68;100.00;97822.59;1829791;77;25818;-46
2023/02/25 06:48:38;;;;;;;87.55;80.32;;;;;;;1.70;100.00;97823.61;1829892;78;25602;-45
2023/02/25 06:51:08;;;;;;;89.17;81.95;;;;;;;1.72;100.00;97820.09;1829850;77;25541;-45
2023/02/25 06:53:37;;;;;;;88.17;80.90;;;;;;;1.75;100.00;97821.58;1829905;77;25398;-45
2023/02/25 06:56:11;;;;;;;64.30;59.20;;;;;;;1.79;100.00;97821.77;1830017;78;27516;-44
2023/02/25 06:58:36;;;;;;;88.35;80.90;;;;;;;1.81;100.00;97829.67;1828538;77;25748;-45
2023/02/25 07:01:13;;;;;;;88.12;81.05;;;;;;;1.81;100.00;97824.91;1829885;78;25536;-44
2023/02/25 07:03:42;;;;;;;91.20;83.72;;;;;;;1.81;100.00;97819.57;1829875;78;25630;-46
2023/02/25 07:06:10;;;;;;;62.13;57.00;;;;;;;1.82;100.00;97822.45;1830041;78;25607;-46
2023/02/25 07:08:36;;;;;;;89.83;82.40;;;;;;;1.84;100.00;97819.73;1829844;77;28162;-45
2023/02/25 07:11:27;;;;;;;89.37;81.95;;;;;;;1.86;100.00;97824.20;1829736;78;25406;-45
2023/02/25 07:13:55;;;;;;;90.00;82.60;;;;;;;1.87;100.00;97830.30;1829899;77;25419;-48
2023/02/25 07:16:21;;;;;;;89.20;82.02;;;;;;;1.86;100.00;97826.86;1829815;78;26076;-45
2023/02/25 07:18:48;;;;;;;91.70;84.05;;;;;;;1.84;100.00;97826.39;1829828;78;25405;-45
2023/02/25 07:21:14;;;;;;;90.83;83.15;;;;;;;1.84;100.00;97819.73;1829849;77;27536;-45
2023/02/25 07:23:42;;;;;;;93.85;85.62;;;;;;;1.84;100.00;97821.06;1829843;78;25536;-47
2023/02/25 07:26:12;;;;;;;91.20;83.27;;;;;;;1.86;100.00;97822.86;1829855;77;25536;-47
2023/02/25 07:28:39;;;;;;;91.72;83.70;;;;;;;1.87;100.00;97827.64;1829952;77;26215;-46
2023/02/25 07:31:16;;;;;;;88.82;81.32;;;;;;;1.89;100.00;97825.47;1829822;78;25439;-47
2023/02/25 07:33:44;;;;;;;92.90;84.90;;;;;;;1.89;100.00;97822.80;1829553;77;27483;-44
2023/02/25 07:36:11;;;;;;;92.45;84.30;;;;;;;1.86;100.00;97817.53;1829846;78;25134;-44
2023/02/25 07:38:38;;;;;;;91.70;83.80;;;;;;;1.86;100.00;97824.20;1829874;77;25387;-45
2023/02/25 07:41:10;;;;;;;89.92;82.10;;;;;;;1.85;100.00;97820.51;1829821;77;26106;-48
2023/02/25 07:43:37;;;;;;;92.08;84.07;;;;;;;1.86;100.00;97824.20;1828565;77;25540;-51
2023/02/25 07:46:04;;;;;;;90.55;82.53;;;;;;;1.89;100.00;97825.47;1829839;77;27450;-48
2023/02/25 07:48:31;;;;;;;91.65;83.55;;;;;;;1.88;100.00;97823.11;1829695;77;25449;-46
2023/02/25 07:51:08;;;;;;;92.50;84.00;;;;;;;1.89;100.00;97826.00;1829853;77;25486;-46
2023/02/25 07:53:34;;;;;;;91.10;83.00;;;;;;;1.88;100.00;97825.22;1829841;78;25574;-48
2023/02/25 07:56:02;;;;;;;91.35;83.62;;;;;;;1.90;100.00;97821.69;1829872;77;25581;-46
2023/02/25 07:58:32;;;;;;;89.20;81.35;;;;;;;1.93;100.00;97825.07;1829835;78;27516;-49
2023/02/25 08:01:01;;;;;;;90.60;82.20;;;;;;;1.94;100.00;97819.98;1829765;78;25442;-47
2023/02/25 08:03:29;;;;;;;90.28;82.53;;;;;;;1.95;100.00;97822.88;1829976;77;25371;-46
2023/02/25 08:05:56;;;;;;;92.90;84.83;;;;;;;1.96;100.00;97823.65;1829781;78;25516;-48
2023/02/25 08:08:22;;;;;;;93.37;85.30;;;;;;;1.96;100.00;97820.45;1829789;78;25637;-48
2023/02/25 08:10:49;;;;;;;71.57;64.90;;;;;;;1.98;100.00;97824.14;1829780;78;27538;-48
2023/02/25 08:13:16;;;;;;;93.37;85.07;;;;;;;1.99;100.00;97825.17;1829757;77;25518;-50
2023/02/25 08:15:43;;;;;;;97.88;89.40;;;;;;;1.98;100.00;97824.14;1829754;78;25687;-46
2023/02/25 08:18:11;;;;;;;93.27;84.97;;;;;;;2.01;100.00;97828.83;1829751;78;25550;-46
2023/02/25 08:20:38;;;;;;;94.25;86.08;;;;;;;2.03;100.00;97825.33;1829804;77;25611;-47
2023/02/25 08:23:05;;;;;;;91.65;83.50;;;;;;;2.05;100.00;97830.56;1829806;77;27472;-46
2023/02/25 08:25:31;;;;;;;92.70;84.60;;;;;;;2.07;100.00;97828.92;1829689;77;27261;-47
2023/02/25 08:27:57;;;;;;;92.75;84.50;;;;;;;2.10;100.00;97831.53;1829769;77;25383;-46
2023/02/25 08:30:23;;;;;;;32.85;16.93;;;;;;;2.11;100.00;97831.22;1829606;77;25458;-46
2023/02/25 08:32:50;;;;;;;28.62;13.03;;;;;;;2.12;100.00;97830.10;1829921;77;25559;-46
2023/02/25 08:35:16;;;;;;;29.27;13.80;;;;;;;2.14;100.00;97832.46;1829607;77;27513;-47
2023/02/25 08:37:46;;;;;;;28.40;13.05;;;;;;;2.14;100.00;97827.91;1828038;77;25978;-47
2023/02/25 08:40:13;;;;;;;30.20;13.08;;;;;;;2.15;100.00;97827.38;1828976;77;25675;-47
2023/02/25 08:42:40;;;;;;;26.00;12.25;;;;;;;2.17;100.00;97826.50;1829405;77;25608;-47
2023/02/25 08:45:09;;;;;;;24.23;11.93;;;;;;;2.18;100.00;97827.53;1829805;77;25590;-45
2023/02/25 08:47:37;;;;;;;29.27;13.20;;;;;;;2.20;100.00;97823.98;1829787;77;27474;-47
2023/02/25 08:50:04;;;;;;;25.52;12.00;;;;;;;2.21;100.00;97824.23;1829665;78;25546;-46
2023/02/25 08:52:33;;;;;;;28.60;12.85;;;;;;;2.23;100.00;97827.91;1829764;78;25566;-46
2023/02/25 08:55:02;;;;;;;28.92;14.05;;;;;;;2.27;100.00;97826.75;1829935;77;32742;-45
2023/02/25 08:57:29;;;;;;;25.20;12.10;;;;;;;2.31;100.00;97828.45;1829791;77;25565;-46
2023/02/25 08:59:56;;;;;;;25.75;12.58;;;;;;;2.33;100.00;97821.47;1829802;78;27487;-46
2023/02/25 09:02:23;;;;;;;21.93;11.43;;;;;;;2.36;100.00;97827.52;1829677;78;25532;-45
2023/02/25 09:04:51;;;;;;;26.65;14.78;;;;;;;2.39;100.00;97823.67;1829764;77;25308;-47
2023/02/25 09:07:19;;;;;;;26.45;14.60;;;;;;;2.41;100.00;97822.80;1829665;77;25500;-46
2023/02/25 09:09:46;;;;;;;26.07;14.83;;;;;;;2.48;100.00;97824.22;1829737;78;25560;-47
2023/02/25 09:12:12;;;;;;;26.60;13.53;;;;;;;2.49;100.00;97817.23;1829769;77;26991;-47
2023/02/25 09:14:39;;;;;;;27.95;16.67;;;;;;;2.57;100.00;97816.97;1829542;77;25722;-46
2023/02/25 09:17:08;;;;;;;53.63;48.60;;;;;;;2.60;100.00;97813.12;1829758;78;25375;-45
2023/02/25 09:19:40;;;;;;;31.25;25.20;;;;;;;2.66;100.00;97814.31;1829870;78;26186;-45
2023/02/25 09:22:05;;;;;;;72.45;66.07;;;;;;;2.69;100.00;97817.13;1827928;77;25543;-47
2023/02/25 09:24:33;;;;;;;95.17;86.82;;;;;;;2.71;100.00;97813.59;1829533;78;28023;-45
2023/02/25 09:27:06;;;;;;;92.35;84.62;;;;;;;2.76;100.00;97805.97;1829704;78;25523;-47
2023/02/25 09:29:36;;;;;;;92.50;84.60;;;;;;;2.79;100.00;97803.45;1829820;77;25444;-47
2023/02/25 09:32:06;;;;;;;95.30;87.33;;;;;;;2.83;100.00;97804.13;1824853;77;26303;-47
2023/02/25 09:34:33;;;;;;;38.53;32.65;;;;;;;2.86;100.00;97802.16;1822073;78;25361;-45
2023/02/25 09:37:04;;;;;;;28.20;14.53;;;;;;;2.88;100.00;97802.09;1819280;78;28616;-45
2023/02/25 09:39:31;;;;;;;94.72;86.82;;;;;;;2.94;100.00;97800.80;1790503;79;25739;-46
2023/02/25 09:42:08;;;;;;;95.67;87.45;;;;;;;2.97;100.00;97800.72;1789817;79;25759;-45
2023/02/25 09:44:49;;;;;;;27.37;12.80;;;;;;;3.04;100.00;97799.67;1791322;79;25543;-47
2023/02/25 09:47:40;;;;;;;29.00;14.05;;;;;;;3.08;100.00;97803.81;1791024;79;25590;-45
2023/02/25 09:50:13;;;;;;;25.50;12.37;;;;;;;3.12;100.00;97800.20;1789708;79;27568;-45
2023/02/25 09:52:46;;;;;;;26.25;12.88;;;;;;;3.16;100.00;97801.67;1791303;80;25518;-45
2023/02/25 09:55:21;;;;;;;26.17;12.58;;;;;;;3.15;100.00;97798.22;1791423;79;25593;-46
2023/02/25 09:58:09;;;;;;;28.27;14.58;;;;;;;3.15;100.00;97800.90;1791044;79;25600;-46
2023/02/25 10:00:43;;;;;;;29.92;12.98;;;;;;;3.19;100.00;97798.36;1790358;79;25395;-43
2023/02/25 10:03:50;;;;;;;29.70;14.03;;;;;;;3.20;100.00;97795.91;1791449;79;27385;-44
2023/02/25 10:06:29;;;;;;;41.20;37.13;;;;;;;3.26;100.00;97795.20;1791274;80;25356;-46
2023/02/25 10:09:27;;;;;;;24.95;12.28;;;;;;;3.45;100.00;97789.44;1791611;80;25621;-46
2023/02/25 10:12:29;;;;;;;22.65;11.75;;;;;;;3.80;100.00;97785.20;1791406;79;25601;-46
2023/02/25 10:15:36;;;;;;;22.20;11.93;;;;;;;4.16;100.00;97787.31;1791354;79;25554;-45
2023/02/25 10:18:29;;;;;;;21.97;11.43;;;;;;;4.36;100.00;97781.72;1791363;79;27619;-45
2023/02/25 10:21:27;;;;;;;20.85;12.60;;;;;;;4.39;100.00;97782.41;1790724;79;25847;-45
2023/02/25 10:24:27;;;;;;;23.25;13.18;;;;;;;4.37;100.00;97782.50;1783392;80;26107;-43
2023/02/25 10:27:16;;;;;;;21.82;17.20;;;;;;;4.41;100.00;97780.18;1791342;80;25509;-44
2023/02/25 10:29:50;;;;;;;24.23;16.42;;;;;;;4.44;100.00;97780.06;1791921;80;25594;-45
2023/02/25 10:32:27;;;;;;;17.05;11.08;;;;;;;4.38;99.75;97782.73;1794946;79;28106;-42
2023/02/25 10:34:59;;;;;;;14.58;7.87;;;;;;;4.32;99.25;97782.13;1797209;79;25732;-43
2023/02/25 10:37:31;;;;;;;10.00;6.65;;;;;;;4.21;98.07;97787.68;1797288;79;25436;-46
2023/02/25 10:40:02;;;;;;;13.18;7.90;;;;;;;3.96;95.52;97786.77;1797263;79;26281;-44
2023/02/25 10:42:30;;;;;;;10.03;6.05;;;;;;;3.72;95.66;97782.27;1797317;79;25384;-44
2023/02/25 10:45:02;;;;;;;13.35;8.13;;;;;;;3.69;97.36;97788.27;1797236;79;27710;-44
2023/02/25 10:47:33;;;;;;;12.82;6.90;;;;;;;3.77;99.18;97787.99;1797332;79;25533;-44
2023/02/25 10:50:20;;;;;;;13.15;7.28;;;;;;;3.89;100.00;97792.07;1797258;79;25509;-44
2023/02/25 10:52:58;;;;;;;12.13;7.37;;;;;;;3.99;100.00;97786.89;1797175;79;25521;-44
2023/02/25 10:55:39;;;;;;;12.13;7.15;;;;;;;4.17;100.00;97788.09;1797348;79;25542;-43
2023/02/25 10:58:22;;;;;;;16.45;8.98;;;;;;;4.30;100.00;97788.38;1796602;79;26935;-44
2023/02/25 11:01:03;;;;;;;15.23;9.18;;;;;;;4.43;100.00;97790.56;1797263;79;25447;-44
2023/02/25 11:03:33;;;;;;;18.92;10.72;;;;;;;4.46;100.00;97795.23;1797315;79;25620;-45
2023/02/25 11:06:11;;;;;;;17.90;9.68;;;;;;;4.41;99.72;97804.27;1797164;79;25539;-44
2023/02/25 11:08:39;;;;;;;11.00;6.28;;;;;;;4.31;98.23;97804.67;1783677;80;25558;-48
2023/02/25 11:11:23;;;;;;;10.55;5.28;;;;;;;4.07;96.20;97806.11;1783868;80;28105;-45
2023/02/25 11:14:00;;;;;;;3.47;3.12;;;;;;;3.88;95.82;97814.59;1783821;80;25639;-44
2023/02/25 11:16:29;;;;;;;5.03;2.65;;;;;;;3.64;94.86;97804.49;1768960;80;26320;-47
2023/02/25 11:18:59;;;;;;;3.52;2.15;;;;;;;3.49;95.27;97806.38;1783468;80;25579;-45
2023/02/25 11:21:36;;;;;;;7.05;4.58;;;;;;;3.43;96.05;97807.13;1783965;80;25641;-45
2023/02/25 11:24:13;;;;;;;7.10;4.78;;;;;;;3.40;96.69;97799.75;1783894;80;27538;-44
2023/02/25 11:26:44;;;;;;;9.03;7.78;;;;;;;3.35;96.83;97797.27;1783766;80;25423;-43
2023/02/25 11:29:19;;;;;;;9.28;4.45;;;;;;;3.32;96.88;97795.23;1783935;80;25443;-43
2023/02/25 11:31:53;;;;;;;10.32;7.58;;;;;;;3.31;97.69;97795.79;1783138;80;25512;-44
2023/02/25 11:34:27;;;;;;;8.83;5.67;;;;;;;3.36;98.39;97797.50;1778773;80;25741;-43
2023/02/25 11:36:54;;;;;;;8.75;6.80;;;;;;;3.41;99.05;97795.98;1779276;80;28034;-43
2023/02/25 11:39:24;;;;;;;8.70;5.92;;;;;;;3.47;99.36;97797.34;1779967;80;25671;-44
2023/02/25 11:41:55;;;;;;;31.97;29.45;;;;;;;3.51;99.08;97796.18;1780851;80;25599;-44